Time;durP1;ratioP1;P1;durP2;ratioP2;P2;SDS_P1;SDS_P2;PMS_P1;PMS_P2;Temp;Humidity;BMP_temperature;BMP_pressure;BME280_temperature;BME280_humidity;BME280_pressure;Samples;Min_cycle;Max_cycle;Signal;HPM_P1;HPM_P2
2021/03/18 00:00:40;;;;;;;13.30;5.73;;;;;;;;;;6232075;23;20222;-89
2021/03/18 00:03:50;;;;;;;14.73;5.60;;;;;;;;;;6215218;23;20154;-91
2021/03/18 00:06:55;;;;;;;11.43;5.57;;;;;;;;;;6232902;23;20151;-91
2021/03/18 00:10:01;;;;;;;9.97;5.57;;;;;;;;;;6231883;23;20195;-90
2021/03/18 00:13:05;;;;;;;11.43;6.10;;;;;;;;;;6223121;23;20210;-91
2021/03/18 00:16:10;;;;;;;16.43;7.37;;;;;;;;;;6223521;23;20223;-91
2021/03/18 00:19:17;;;;;;;10.43;5.80;;;;;;;;;;6224834;23;20221;-90
2021/03/18 00:22:22;;;;;;;13.43;6.13;;;;;;;;;;6223351;23;20218;-91
2021/03/18 00:25:27;;;;;;;15.53;7.13;;;;;;;;;;6205738;23;20194;-91
2021/03/18 00:28:32;;;;;;;14.67;6.17;;;;;;;;;;6205378;23;20167;-89
2021/03/18 00:31:36;;;;;;;14.03;6.03;;;;;;;;;;6223750;23;20167;-90
2021/03/18 00:34:42;;;;;;;9.87;5.70;;;;;;;;;;6207022;23;20574;-91
2021/03/18 00:37:47;;;;;;;10.57;5.60;;;;;;;;;;6224337;23;20174;-91
2021/03/18 00:40:53;;;;;;;10.27;5.30;;;;;;;;;;6223724;23;20171;-91
2021/03/18 00:43:58;;;;;;;10.43;5.57;;;;;;;;;;6222780;23;20175;-90
2021/03/18 00:47:02;;;;;;;13.80;5.90;;;;;;;;;;6223829;23;20199;-90
2021/03/18 00:50:09;;;;;;;12.43;5.10;;;;;;;;;;6225224;23;20194;-89
2021/03/18 00:53:15;;;;;;;9.90;5.00;;;;;;;;;;6224220;23;20245;-90
2021/03/18 00:56:22;;;;;;;12.37;5.13;;;;;;;;;;6223599;23;20215;-91
2021/03/18 00:59:31;;;;;;;15.53;5.63;;;;;;;;;;6223967;23;20175;-91
2021/03/18 01:02:36;;;;;;;10.97;5.57;;;;;;;;;;6240662;23;20197;-88
2021/03/18 01:05:43;;;;;;;18.47;5.80;;;;;;;;;;6223827;23;20193;-90
2021/03/18 01:08:47;;;;;;;14.57;6.23;;;;;;;;;;6224645;23;20175;-91
2021/03/18 01:11:52;;;;;;;12.03;5.63;;;;;;;;;;6225447;23;20638;-91
2021/03/18 01:14:56;;;;;;;13.03;5.03;;;;;;;;;;6225158;23;20179;-90
2021/03/18 01:18:00;;;;;;;11.00;5.50;;;;;;;;;;6225225;23;20254;-90
2021/03/18 01:21:06;;;;;;;10.00;5.13;;;;;;;;;;6226553;23;20546;-88
2021/03/18 01:24:11;;;;;;;10.10;5.40;;;;;;;;;;6225749;23;20166;-89
2021/03/18 01:27:15;;;;;;;10.60;5.40;;;;;;;;;;6225264;23;20184;-90
2021/03/18 01:30:22;;;;;;;10.93;5.60;;;;;;;;;;6225134;23;20254;-89
2021/03/18 01:33:27;;;;;;;9.50;5.40;;;;;;;;;;6225167;23;20155;-89
2021/03/18 01:36:34;;;;;;;12.33;5.57;;;;;;;;;;6225400;23;20217;-87
2021/03/18 01:39:38;;;;;;;9.83;5.60;;;;;;;;;;6226533;23;20195;-90
2021/03/18 01:42:43;;;;;;;12.10;5.83;;;;;;;;;;6226040;23;20168;-89
2021/03/18 01:45:47;;;;;;;9.27;5.50;;;;;;;;;;6225118;23;20252;-91
2021/03/18 01:48:52;;;;;;;10.17;5.40;;;;;;;;;;6226745;23;20166;-90
2021/03/18 01:51:57;;;;;;;12.73;5.83;;;;;;;;;;6226315;23;20175;-90
2021/03/18 01:55:02;;;;;;;9.67;4.83;;;;;;;;;;6225486;23;20171;-88
2021/03/18 01:58:07;;;;;;;10.73;5.57;;;;;;;;;;6225439;23;20170;-89
2021/03/18 02:01:12;;;;;;;11.23;5.37;;;;;;;;;;6242720;23;20213;-88
2021/03/18 02:04:17;;;;;;;11.20;5.70;;;;;;;;;;6224977;23;20150;-90
2021/03/18 02:07:23;;;;;;;12.90;5.70;;;;;;;;;;6225621;23;20187;-89
2021/03/18 02:10:28;;;;;;;12.70;6.30;;;;;;;;;;6225005;23;20206;-89
2021/03/18 02:13:32;;;;;;;12.00;6.33;;;;;;;;;;6226223;23;20242;-90
2021/03/18 02:16:38;;;;;;;14.57;5.93;;;;;;;;;;6207865;23;20234;-89
2021/03/18 02:19:58;;;;;;;13.03;6.10;;;;;;;;;;6224827;23;20243;-88
2021/03/18 02:23:14;;;;;;;12.60;5.83;;;;;;;;;;6208099;23;20171;-88
2021/03/18 02:26:25;;;;;;;12.10;5.70;;;;;;;;;;6224479;23;20171;-89
2021/03/18 02:29:40;;;;;;;12.67;6.17;;;;;;;;;;6225949;23;20190;-89
2021/03/18 02:32:50;;;;;;;13.67;6.23;;;;;;;;;;6225442;23;20175;-90
2021/03/18 02:35:57;;;;;;;15.67;6.57;;;;;;;;;;6223730;23;20187;-90
2021/03/18 02:39:04;;;;;;;13.63;6.30;;;;;;;;;;6224422;23;20150;-89
2021/03/18 02:42:12;;;;;;;14.00;6.07;;;;;;;;;;6223306;23;20211;-89
2021/03/18 02:45:18;;;;;;;11.77;6.20;;;;;;;;;;6206911;23;20257;-88
2021/03/18 02:48:23;;;;;;;12.77;6.33;;;;;;;;;;6224262;23;20170;-88
2021/03/18 02:51:29;;;;;;;13.50;6.53;;;;;;;;;;6225108;23;20257;-88
2021/03/18 02:54:35;;;;;;;15.33;6.37;;;;;;;;;;6206120;23;20195;-89
2021/03/18 02:57:40;;;;;;;13.30;6.43;;;;;;;;;;6224699;23;20221;-90
2021/03/18 03:00:45;;;;;;;12.73;6.10;;;;;;;;;;6206220;23;20190;-88
2021/03/18 03:03:49;;;;;;;14.57;6.80;;;;;;;;;;6205953;23;20543;-89
2021/03/18 03:06:55;;;;;;;15.50;7.13;;;;;;;;;;6205812;23;20171;-89
2021/03/18 03:10:01;;;;;;;15.20;6.53;;;;;;;;;;6223582;23;20234;-89
2021/03/18 03:13:05;;;;;;;15.07;6.90;;;;;;;;;;6225148;23;20247;-90
2021/03/18 03:16:13;;;;;;;13.17;7.00;;;;;;;;;;6224033;23;20186;-87
2021/03/18 03:19:17;;;;;;;14.67;7.17;;;;;;;;;;6224585;23;20220;-87
2021/03/18 03:22:23;;;;;;;18.40;7.60;;;;;;;;;;6224329;23;20167;-89
2021/03/18 03:25:28;;;;;;;19.37;8.57;;;;;;;;;;6206916;23;20713;-89
2021/03/18 03:28:34;;;;;;;18.87;7.90;;;;;;;;;;6223749;23;20206;-89
2021/03/18 03:31:38;;;;;;;16.53;8.00;;;;;;;;;;6224957;23;20174;-88
2021/03/18 03:34:43;;;;;;;14.87;7.30;;;;;;;;;;6224648;23;20226;-89
2021/03/18 03:37:48;;;;;;;14.93;7.67;;;;;;;;;;6224674;23;20163;-89
2021/03/18 03:40:53;;;;;;;14.57;7.07;;;;;;;;;;6224497;23;20183;-89
2021/03/18 03:43:57;;;;;;;15.37;7.53;;;;;;;;;;6207575;23;20217;-90
2021/03/18 03:47:03;;;;;;;15.10;7.43;;;;;;;;;;6224558;22;20166;-90
2021/03/18 03:50:08;;;;;;;15.63;7.83;;;;;;;;;;6224092;23;20195;-89
2021/03/18 03:53:15;;;;;;;17.43;8.03;;;;;;;;;;6224743;23;20167;-90
2021/03/18 03:56:22;;;;;;;17.50;7.67;;;;;;;;;;6224486;23;20166;-90
2021/03/18 03:59:27;;;;;;;16.17;7.87;;;;;;;;;;6225386;23;20619;-90
2021/03/18 04:02:32;;;;;;;16.17;6.67;;;;;;;;;;6240160;23;20199;-89
2021/03/18 04:05:37;;;;;;;13.93;7.60;;;;;;;;;;6241791;23;20167;-89
2021/03/18 04:08:45;;;;;;;16.03;7.37;;;;;;;;;;6224557;23;20247;-87
2021/03/18 04:11:50;;;;;;;14.40;7.13;;;;;;;;;;6225125;23;20186;-88
2021/03/18 04:14:56;;;;;;;18.70;7.00;;;;;;;;;;6224569;23;20214;-87
2021/03/18 04:18:02;;;;;;;16.33;7.00;;;;;;;;;;6224923;23;20170;-88
2021/03/18 04:21:08;;;;;;;17.23;7.33;;;;;;;;;;6224818;23;20268;-89
2021/03/18 04:24:15;;;;;;;15.60;7.40;;;;;;;;;;6226945;23;20174;-89
2021/03/18 04:27:21;;;;;;;15.60;7.30;;;;;;;;;;6228040;23;20232;-88
2021/03/18 04:30:26;;;;;;;18.77;7.13;;;;;;;;;;6226908;23;20198;-90
2021/03/18 04:33:31;;;;;;;13.23;6.97;;;;;;;;;;6228252;23;20171;-89
2021/03/18 04:36:37;;;;;;;17.43;6.83;;;;;;;;;;6226278;23;20294;-89
2021/03/18 04:39:42;;;;;;;15.13;7.00;;;;;;;;;;6226357;23;20634;-88
2021/03/18 04:42:47;;;;;;;13.67;7.20;;;;;;;;;;6227046;23;20171;-87
2021/03/18 04:45:52;;;;;;;17.43;7.80;;;;;;;;;;6227649;23;20166;-89
2021/03/18 04:48:57;;;;;;;18.00;7.67;;;;;;;;;;6227013;23;20226;-90
2021/03/18 04:52:01;;;;;;;16.90;7.67;;;;;;;;;;6227629;23;20239;-89
2021/03/18 04:55:08;;;;;;;14.67;7.00;;;;;;;;;;6227871;23;20174;-89
2021/03/18 04:58:12;;;;;;;19.77;8.27;;;;;;;;;;6226867;23;20171;-90
2021/03/18 05:01:18;;;;;;;18.60;7.80;;;;;;;;;;6227276;23;20194;-90
2021/03/18 05:04:24;;;;;;;21.57;8.47;;;;;;;;;;6227243;23;20190;-89
2021/03/18 05:07:30;;;;;;;19.33;7.60;;;;;;;;;;6227058;23;20171;-90
2021/03/18 05:10:39;;;;;;;16.13;7.87;;;;;;;;;;6225921;23;20242;-89
2021/03/18 05:13:44;;;;;;;17.27;8.13;;;;;;;;;;6227332;23;20155;-89
2021/03/18 05:16:49;;;;;;;19.27;8.93;;;;;;;;;;6224213;23;20250;-90
2021/03/18 05:19:54;;;;;;;17.37;7.80;;;;;;;;;;6228174;22;20170;-90
2021/03/18 05:22:58;;;;;;;17.67;8.03;;;;;;;;;;6225853;23;20305;-90
2021/03/18 05:26:04;;;;;;;17.40;8.40;;;;;;;;;;6226463;23;20166;-90
2021/03/18 05:29:10;;;;;;;18.20;8.90;;;;;;;;;;6227198;23;20672;-89
2021/03/18 05:32:14;;;;;;;21.90;9.33;;;;;;;;;;6227280;23;20179;-89
2021/03/18 05:35:19;;;;;;;18.53;7.60;;;;;;;;;;6226458;23;20171;-89
2021/03/18 05:38:23;;;;;;;18.43;8.53;;;;;;;;;;6226380;23;20242;-90
2021/03/18 05:41:29;;;;;;;18.37;8.43;;;;;;;;;;6228730;23;20283;-89
2021/03/18 05:44:34;;;;;;;21.63;9.17;;;;;;;;;;6227208;23;20175;-88
2021/03/18 05:47:38;;;;;;;17.70;8.13;;;;;;;;;;6213772;23;20224;-89
2021/03/18 05:50:44;;;;;;;20.37;9.13;;;;;;;;;;6228856;23;20195;-88
2021/03/18 05:53:49;;;;;;;18.77;9.03;;;;;;;;;;6211347;23;20219;-89
2021/03/18 05:56:57;;;;;;;19.07;8.47;;;;;;;;;;6228560;23;20187;-88
2021/03/18 06:00:02;;;;;;;21.93;9.57;;;;;;;;;;6228551;23;20199;-88
2021/03/18 06:03:09;;;;;;;19.07;8.97;;;;;;;;;;6227188;23;20172;-88
2021/03/18 06:06:18;;;;;;;19.53;9.17;;;;;;;;;;6225949;23;20218;-87
2021/03/18 06:09:22;;;;;;;20.83;9.20;;;;;;;;;;6227569;23;20202;-88
2021/03/18 06:12:28;;;;;;;24.73;9.47;;;;;;;;;;6227118;23;20180;-88
2021/03/18 06:15:34;;;;;;;20.60;9.30;;;;;;;;;;6226325;23;20210;-88
2021/03/18 06:18:39;;;;;;;18.30;8.83;;;;;;;;;;6226045;23;20167;-89
2021/03/18 06:21:45;;;;;;;22.37;9.43;;;;;;;;;;6227873;23;20235;-88
2021/03/18 06:24:50;;;;;;;19.23;9.23;;;;;;;;;;6228310;23;20175;-89
2021/03/18 06:28:13;;;;;;;19.43;9.30;;;;;;;;;;6226674;23;20179;-88
2021/03/18 06:31:19;;;;;;;21.23;9.40;;;;;;;;;;6227174;23;20215;-88
2021/03/18 06:34:40;;;;;;;19.77;8.93;;;;;;;;;;6209680;23;20171;-87
2021/03/18 06:37:49;;;;;;;18.70;8.63;;;;;;;;;;6227315;23;20175;-88
2021/03/18 06:40:54;;;;;;;20.87;9.37;;;;;;;;;;6230887;23;20175;-90
2021/03/18 06:43:58;;;;;;;23.17;9.43;;;;;;;;;;6215718;22;20218;-90
2021/03/18 06:47:08;;;;;;;19.73;9.67;;;;;;;;;;6225400;23;20498;-90
2021/03/18 06:50:14;;;;;;;23.23;10.07;;;;;;;;;;6210922;23;20322;-88
2021/03/18 06:53:19;;;;;;;21.50;9.47;;;;;;;;;;6209011;23;20195;-92
2021/03/18 06:56:25;;;;;;;24.00;10.17;;;;;;;;;;6227302;23;20247;-89
2021/03/18 06:59:30;;;;;;;21.97;9.50;;;;;;;;;;6209616;23;20175;-90
2021/03/18 07:02:40;;;;;;;22.87;10.37;;;;;;;;;;6246068;22;20187;-89
2021/03/18 07:05:45;;;;;;;22.57;10.83;;;;;;;;;;6232952;23;20306;-90
2021/03/18 07:09:01;;;;;;;25.27;10.77;;;;;;;;;;6228975;23;20175;-90
2021/03/18 07:12:08;;;;;;;20.67;10.13;;;;;;;;;;6226471;23;20194;-87
2021/03/18 07:15:19;;;;;;;22.00;10.23;;;;;;;;;;6227651;23;20689;-91
2021/03/18 07:18:25;;;;;;;25.50;11.10;;;;;;;;;;6228679;23;20163;-90
2021/03/18 07:21:35;;;;;;;24.67;10.40;;;;;;;;;;6229957;23;20190;-90
2021/03/18 07:24:40;;;;;;;24.20;10.23;;;;;;;;;;6229287;23;20167;-90
2021/03/18 07:27:45;;;;;;;22.43;9.33;;;;;;;;;;6226420;23;20238;-90
2021/03/18 07:30:50;;;;;;;21.97;9.80;;;;;;;;;;6224891;23;20651;-90
2021/03/18 07:33:59;;;;;;;23.30;9.90;;;;;;;;;;6227211;23;20599;-89
2021/03/18 07:37:04;;;;;;;25.73;10.33;;;;;;;;;;6230143;22;20199;-91
2021/03/18 07:40:08;;;;;;;23.90;10.03;;;;;;;;;;6227746;23;20228;-89
2021/03/18 07:43:14;;;;;;;19.87;9.83;;;;;;;;;;6225342;22;20166;-91
2021/03/18 07:46:19;;;;;;;20.33;9.77;;;;;;;;;;6226142;23;20179;-89
2021/03/18 07:49:26;;;;;;;22.50;9.43;;;;;;;;;;6226653;23;20178;-90
2021/03/18 07:52:31;;;;;;;20.03;9.77;;;;;;;;;;6225394;23;20214;-89
2021/03/18 07:55:45;;;;;;;32.27;11.87;;;;;;;;;;6225592;23;20158;-89
2021/03/18 07:58:50;;;;;;;21.60;8.87;;;;;;;;;;6227560;23;20219;-89
2021/03/18 08:01:56;;;;;;;25.50;9.87;;;;;;;;;;6229270;22;20237;-89
2021/03/18 08:05:02;;;;;;;19.43;8.60;;;;;;;;;;6243667;23;20198;-91
2021/03/18 08:08:07;;;;;;;17.87;8.60;;;;;;;;;;6229989;23;20155;-88
2021/03/18 08:11:13;;;;;;;16.70;8.90;;;;;;;;;;6251866;23;20215;-88
2021/03/18 08:14:20;;;;;;;19.60;8.60;;;;;;;;;;6249994;23;20251;-92
2021/03/18 08:17:29;;;;;;;25.13;9.17;;;;;;;;;;6216259;23;20171;-90
2021/03/18 08:20:53;;;;;;;19.93;8.00;;;;;;;;;;6229298;23;20493;-91
2021/03/18 08:23:58;;;;;;;15.17;6.67;;;;;;;;;;6226169;23;20176;-90
2021/03/18 08:27:04;;;;;;;16.13;7.80;;;;;;;;;;6224566;23;20369;-88
2021/03/18 08:30:20;;;;;;;17.53;8.23;;;;;;;;;;6226574;23;20263;-89
2021/03/18 08:33:32;;;;;;;28.97;9.50;;;;;;;;;;6251514;22;20191;-90
2021/03/18 08:36:46;;;;;;;20.83;8.83;;;;;;;;;;6253673;22;20221;-90
2021/03/18 16:14:17;;;;;;;9.47;5.10;;;;;;;;;;6106510;23;20213;-91
2021/03/18 16:17:22;;;;;;;11.20;5.23;;;;;;;;;;6096903;23;20241;-90
2021/03/18 16:20:27;;;;;;;13.63;5.40;;;;;;;;;;6090575;23;20194;-91
2021/03/18 16:23:33;;;;;;;9.60;4.03;;;;;;;;;;6090746;23;20206;-91
2021/03/18 16:26:41;;;;;;;6.33;3.33;;;;;;;;;;6091747;23;20170;-91
2021/03/18 16:29:47;;;;;;;6.87;3.40;;;;;;;;;;6090650;23;20263;-90
2021/03/18 16:32:53;;;;;;;11.80;3.97;;;;;;;;;;6091577;23;20207;-90
2021/03/18 16:35:57;;;;;;;5.53;3.40;;;;;;;;;;6108466;23;20173;-90
2021/03/18 16:39:02;;;;;;;8.30;3.43;;;;;;;;;;6091322;23;20169;-91
2021/03/18 16:42:07;;;;;;;6.23;3.50;;;;;;;;;;6091991;23;20174;-90
2021/03/18 16:45:13;;;;;;;10.43;4.37;;;;;;;;;;6114825;23;20682;-90
2021/03/18 17:11:47;;;;;;;7.70;3.90;;;;;;;;;;6164562;22;20221;-91
2021/03/18 17:14:51;;;;;;;7.47;3.30;;;;;;;;;;6146966;23;20261;-89
2021/03/18 17:17:56;;;;;;;6.47;3.37;;;;;;;;;;6146905;23;20180;-90
2021/03/18 17:21:03;;;;;;;10.53;4.70;;;;;;;;;;6148793;23;20188;-90
2021/03/18 17:24:08;;;;;;;11.90;5.20;;;;;;;;;;6150441;23;20222;-89
2021/03/18 17:27:13;;;;;;;14.23;6.67;;;;;;;;;;6149158;23;20216;-91
2021/03/18 17:30:20;;;;;;;12.17;5.73;;;;;;;;;;6148995;23;20283;-90
2021/03/18 17:33:26;;;;;;;11.60;5.27;;;;;;;;;;6148524;23;20184;-90
2021/03/18 17:36:33;;;;;;;9.73;5.50;;;;;;;;;;6147704;23;20181;-88
2021/03/18 17:39:38;;;;;;;8.77;4.00;;;;;;;;;;6149638;23;20241;-89
2021/03/18 17:42:44;;;;;;;11.23;5.03;;;;;;;;;;6148381;23;20514;-89
2021/03/18 17:45:50;;;;;;;13.57;5.33;;;;;;;;;;6147635;23;20173;-91
2021/03/18 17:48:55;;;;;;;11.40;5.57;;;;;;;;;;6148653;23;20161;-88
2021/03/18 17:52:00;;;;;;;10.67;5.57;;;;;;;;;;6148002;23;20243;-89
2021/03/18 17:55:05;;;;;;;10.07;4.40;;;;;;;;;;6149617;23;20188;-89
2021/03/18 17:58:11;;;;;;;10.33;4.70;;;;;;;;;;6148196;23;20295;-90
2021/03/18 18:01:15;;;;;;;9.33;4.40;;;;;;;;;;6149103;23;20171;-91
2021/03/18 18:04:20;;;;;;;8.43;4.60;;;;;;;;;;6147974;23;20164;-89
2021/03/18 18:07:24;;;;;;;11.83;5.37;;;;;;;;;;6147084;23;20221;-90
2021/03/18 18:10:30;;;;;;;10.30;5.03;;;;;;;;;;6148032;23;20256;-90
2021/03/18 18:13:35;;;;;;;10.77;4.30;;;;;;;;;;6148765;23;20172;-90
2021/03/18 18:16:41;;;;;;;11.80;6.00;;;;;;;;;;6147358;23;20172;-88
2021/03/18 18:19:46;;;;;;;11.43;6.00;;;;;;;;;;6146256;23;20180;-89
2021/03/18 18:22:51;;;;;;;10.80;4.77;;;;;;;;;;6149523;23;20222;-89
2021/03/18 18:25:57;;;;;;;11.47;4.90;;;;;;;;;;6148440;23;20592;-89
2021/03/18 18:29:03;;;;;;;8.53;4.70;;;;;;;;;;6147394;23;20184;-88
2021/03/18 18:32:09;;;;;;;15.03;6.13;;;;;;;;;;6146841;23;20196;-88
2021/03/18 18:35:15;;;;;;;16.33;7.30;;;;;;;;;;6145766;23;20176;-88
2021/03/18 18:38:21;;;;;;;20.57;8.07;;;;;;;;;;6164670;23;20192;-89
2021/03/18 18:41:26;;;;;;;11.40;6.37;;;;;;;;;;6146296;23;20176;-86
2021/03/18 18:44:32;;;;;;;15.43;6.60;;;;;;;;;;6148451;23;20215;-87
2021/03/18 18:47:37;;;;;;;12.37;5.70;;;;;;;;;;6149735;23;20239;-89
2021/03/18 18:50:43;;;;;;;13.97;6.27;;;;;;;;;;6149001;23;20193;-89
2021/03/18 18:53:47;;;;;;;13.93;6.07;;;;;;;;;;6149570;23;20172;-89
2021/03/18 18:56:56;;;;;;;12.07;5.63;;;;;;;;;;6148635;23;20168;-88
2021/03/18 19:00:02;;;;;;;10.67;5.40;;;;;;;;;;6148479;23;20226;-90
2021/03/18 19:03:08;;;;;;;12.13;5.67;;;;;;;;;;6147871;23;20168;-89
2021/03/18 19:06:13;;;;;;;13.47;6.27;;;;;;;;;;6148528;23;20245;-88
2021/03/18 19:09:18;;;;;;;10.30;5.23;;;;;;;;;;6150025;23;20172;-89
2021/03/18 19:12:22;;;;;;;10.40;5.80;;;;;;;;;;6147778;23;20260;-89
2021/03/18 19:15:29;;;;;;;11.80;6.63;;;;;;;;;;6146163;23;20160;-89
2021/03/18 19:18:33;;;;;;;13.90;7.20;;;;;;;;;;6146264;23;20176;-89
2021/03/18 19:21:38;;;;;;;11.00;6.37;;;;;;;;;;6146376;23;20280;-90
2021/03/18 19:24:43;;;;;;;14.63;6.93;;;;;;;;;;6146806;23;20168;-88
2021/03/18 19:27:48;;;;;;;22.50;10.20;;;;;;;;;;6144690;23;20227;-91
2021/03/18 19:30:54;;;;;;;26.23;10.80;;;;;;;;;;6143890;23;20258;-89
2021/03/18 19:33:58;;;;;;;25.40;11.73;;;;;;;;;;6144486;23;20188;-87
2021/03/18 19:37:09;;;;;;;24.13;11.97;;;;;;;;;;6145505;23;20228;-89
2021/03/18 19:40:15;;;;;;;32.83;13.50;;;;;;;;;;6144710;23;20172;-89
2021/03/18 19:43:21;;;;;;;28.50;13.23;;;;;;;;;;6144588;23;20640;-90
2021/03/18 19:46:26;;;;;;;31.30;14.10;;;;;;;;;;6143014;23;20180;-89
2021/03/18 19:49:31;;;;;;;37.70;15.37;;;;;;;;;;6144811;23;20161;-91
2021/03/18 19:52:36;;;;;;;34.77;14.77;;;;;;;;;;6144166;23;20518;-89
2021/03/18 19:55:41;;;;;;;30.23;14.57;;;;;;;;;;6143764;23;20236;-89
2021/03/18 19:58:45;;;;;;;29.33;13.37;;;;;;;;;;6144667;23;20331;-90
2021/03/18 20:01:50;;;;;;;25.30;12.00;;;;;;;;;;6144097;23;20192;-91
2021/03/18 20:04:55;;;;;;;35.83;14.47;;;;;;;;;;6144679;23;20188;-89
2021/03/18 20:07:59;;;;;;;66.13;22.77;;;;;;;;;;6143939;23;20172;-91
2021/03/18 20:11:04;;;;;;;25.73;10.77;;;;;;;;;;6143758;23;20255;-87
2021/03/18 20:14:08;;;;;;;20.00;9.33;;;;;;;;;;6144667;23;20208;-86
2021/03/18 20:17:14;;;;;;;19.90;9.63;;;;;;;;;;6144197;23;20216;-88
2021/03/18 20:20:20;;;;;;;23.43;10.13;;;;;;;;;;6143683;23;20245;-90
2021/03/18 20:23:24;;;;;;;18.40;9.70;;;;;;;;;;6146002;23;20173;-91
2021/03/18 20:26:29;;;;;;;19.33;9.37;;;;;;;;;;6146456;23;20652;-89
2021/03/18 20:29:34;;;;;;;17.73;8.57;;;;;;;;;;6146797;23;20200;-89
2021/03/18 20:32:39;;;;;;;20.53;9.50;;;;;;;;;;6146191;23;20287;-89
2021/03/18 20:35:45;;;;;;;19.63;9.90;;;;;;;;;;6146307;23;20184;-90
2021/03/18 20:38:51;;;;;;;30.40;13.03;;;;;;;;;;6146064;23;20192;-89
2021/03/18 20:41:55;;;;;;;23.67;10.80;;;;;;;;;;6145178;23;20164;-90
2021/03/18 20:45:00;;;;;;;28.40;11.33;;;;;;;;;;6145254;23;20569;-89
2021/03/18 20:48:09;;;;;;;23.80;10.63;;;;;;;;;;6145048;23;20184;-89
2021/03/18 20:55:32;;;;;;;23.60;10.53;;;;;;;;;;6161741;23;20188;-88
2021/03/18 20:58:38;;;;;;;22.63;9.77;;;;;;;;;;6145878;23;20177;-90
2021/03/18 21:01:42;;;;;;;20.30;9.80;;;;;;;;;;6145152;23;20212;-90
2021/03/18 21:04:48;;;;;;;25.20;11.67;;;;;;;;;;6144839;23;20176;-91
2021/03/18 21:07:52;;;;;;;28.53;13.20;;;;;;;;;;6147349;23;20215;-89
2021/03/18 21:10:57;;;;;;;31.20;13.83;;;;;;;;;;6147111;23;20208;-90
2021/03/18 21:14:02;;;;;;;34.30;15.33;;;;;;;;;;6147379;23;20229;-88
2021/03/18 21:17:07;;;;;;;33.63;14.60;;;;;;;;;;6148727;23;20179;-90
2021/03/18 21:20:14;;;;;;;31.13;14.87;;;;;;;;;;6146483;23;20249;-90
2021/03/18 21:23:18;;;;;;;32.17;14.77;;;;;;;;;;6146806;23;20232;-89
2021/03/18 21:26:23;;;;;;;34.27;15.73;;;;;;;;;;6145835;23;20172;-89
2021/03/18 21:29:27;;;;;;;40.93;17.67;;;;;;;;;;6145927;23;20193;-90
2021/03/18 21:32:32;;;;;;;31.97;15.30;;;;;;;;;;6146414;23;20620;-92
2021/03/18 21:35:38;;;;;;;34.67;16.07;;;;;;;;;;6164409;23;20200;-89
2021/03/18 21:38:42;;;;;;;37.73;16.47;;;;;;;;;;6147393;23;20736;-89
2021/03/18 21:41:47;;;;;;;36.70;16.87;;;;;;;;;;6146391;23;20245;-89
2021/03/18 21:44:53;;;;;;;39.60;17.50;;;;;;;;;;6144926;23;20253;-87
2021/03/18 21:47:59;;;;;;;35.07;16.03;;;;;;;;;;6145468;23;20172;-89
2021/03/18 21:51:05;;;;;;;34.80;16.00;;;;;;;;;;6144151;23;20240;-89
2021/03/18 21:54:11;;;;;;;37.30;16.57;;;;;;;;;;6145363;23;20240;-90
2021/03/18 21:57:15;;;;;;;32.83;15.60;;;;;;;;;;6145526;23;20240;-88
2021/03/18 22:00:22;;;;;;;34.77;16.03;;;;;;;;;;6147569;23;20177;-87
2021/03/18 22:03:27;;;;;;;36.17;16.27;;;;;;;;;;6151918;23;20176;-90
2021/03/18 22:06:33;;;;;;;35.93;16.87;;;;;;;;;;6145755;23;20172;-89
2021/03/18 22:09:38;;;;;;;38.43;16.40;;;;;;;;;;6144512;23;20223;-89
2021/03/18 22:12:43;;;;;;;39.30;17.20;;;;;;;;;;6145264;23;20184;-90
2021/03/18 22:15:48;;;;;;;38.73;17.30;;;;;;;;;;6144683;23;20176;-90
2021/03/18 22:18:53;;;;;;;37.57;17.30;;;;;;;;;;6145571;23;20189;-89
2021/03/18 22:21:59;;;;;;;39.27;18.33;;;;;;;;;;6145421;23;20509;-91
2021/03/18 22:25:03;;;;;;;41.40;18.17;;;;;;;;;;6145140;23;20224;-89
2021/03/18 22:28:08;;;;;;;38.03;17.03;;;;;;;;;;6145923;23;20192;-89
2021/03/18 22:31:12;;;;;;;34.33;15.87;;;;;;;;;;6145383;23;20243;-90
2021/03/18 22:34:17;;;;;;;37.13;16.63;;;;;;;;;;6144576;23;20295;-88
2021/03/18 22:37:23;;;;;;;33.27;15.73;;;;;;;;;;6146268;23;20209;-91
2021/03/18 22:40:28;;;;;;;34.53;16.27;;;;;;;;;;6145996;23;20175;-89
2021/03/18 22:43:32;;;;;;;33.63;15.83;;;;;;;;;;6144789;23;20176;-89
2021/03/18 22:46:37;;;;;;;37.60;17.97;;;;;;;;;;6144321;23;20180;-90
2021/03/18 22:49:41;;;;;;;44.13;19.20;;;;;;;;;;6144867;23;20296;-90
2021/03/18 22:52:47;;;;;;;39.97;17.53;;;;;;;;;;6144126;23;20196;-90
2021/03/18 22:55:54;;;;;;;41.30;17.53;;;;;;;;;;6144382;23;20280;-88
2021/03/18 22:58:58;;;;;;;36.87;16.13;;;;;;;;;;6144063;23;20224;-90
2021/03/18 23:02:37;;;;;;;37.23;16.27;;;;;;;;;;6144052;23;20253;-88
2021/03/18 23:05:42;;;;;;;35.40;16.00;;;;;;;;;;6143848;23;20172;-89
2021/03/18 23:08:47;;;;;;;35.23;15.83;;;;;;;;;;6144594;23;20850;-91
2021/03/18 23:11:53;;;;;;;33.00;15.57;;;;;;;;;;6144709;23;20276;-90
2021/03/18 23:14:58;;;;;;;38.37;17.73;;;;;;;;;;6144191;23;20176;-88
2021/03/18 23:18:12;;;;;;;33.03;14.73;;;;;;;;;;6144901;23;20176;-89
2021/03/18 23:21:17;;;;;;;32.13;15.20;;;;;;;;;;6144553;23;20296;-88
2021/03/18 23:24:22;;;;;;;31.27;15.13;;;;;;;;;;6145228;23;20196;-90
2021/03/18 23:27:27;;;;;;;31.17;14.57;;;;;;;;;;6143883;23;20520;-91
2021/03/18 23:30:32;;;;;;;33.87;15.07;;;;;;;;;;6142936;23;20219;-89
2021/03/18 23:33:36;;;;;;;34.37;15.13;;;;;;;;;;6144178;23;20508;-91
2021/03/18 23:36:41;;;;;;;29.50;14.17;;;;;;;;;;6126961;23;20263;-88
2021/03/18 23:39:46;;;;;;;33.73;15.23;;;;;;;;;;6143558;23;20284;-89
2021/03/18 23:42:51;;;;;;;31.90;14.33;;;;;;;;;;6143571;23;20224;-89
2021/03/18 23:45:55;;;;;;;28.70;13.93;;;;;;;;;;6144447;23;20172;-88
2021/03/18 23:49:00;;;;;;;29.07;13.80;;;;;;;;;;6144510;23;20173;-89
2021/03/18 23:52:05;;;;;;;29.43;13.83;;;;;;;;;;6145625;23;20191;-89
2021/03/18 23:55:11;;;;;;;24.17;12.47;;;;;;;;;;6146111;23;20180;-90
2021/03/18 23:58:15;;;;;;;26.67;12.97;;;;;;;;;;6145392;23;20172;-88
